sensor_id;sensor_type;location;lat;lon;timestamp;P1;durP1;ratioP1;P2;durP2;ratioP2
62844;SDS011;48929;47.910;20.390;2023-05-16T00:05:10;20.80;;;9.32;;
62844;SDS011;48929;47.910;20.390;2023-05-16T00:08:11;19.35;;;8.77;;
62844;SDS011;48929;47.910;20.390;2023-05-16T00:11:20;23.13;;;9.60;;
62844;SDS011;48929;47.910;20.390;2023-05-16T00:13:54;24.70;;;9.95;;
62844;SDS011;48929;47.910;20.390;2023-05-16T00:16:47;25.23;;;10.20;;
62844;SDS011;48929;47.910;20.390;2023-05-16T00:19:43;24.92;;;10.40;;
62844;SDS011;48929;47.910;20.390;2023-05-16T00:22:50;28.25;;;10.50;;
62844;SDS011;48929;47.910;20.390;2023-05-16T00:25:52;29.98;;;11.18;;
62844;SDS011;48929;47.910;20.390;2023-05-16T00:28:52;31.05;;;10.80;;
62844;SDS011;48929;47.910;20.390;2023-05-16T00:32:05;29.20;;;11.57;;
62844;SDS011;48929;47.910;20.390;2023-05-16T00:35:22;34.20;;;11.40;;
62844;SDS011;48929;47.910;20.390;2023-05-16T00:38:23;34.00;;;11.25;;
62844;SDS011;48929;47.910;20.390;2023-05-16T00:41:45;30.85;;;10.82;;
62844;SDS011;48929;47.910;20.390;2023-05-16T00:44:48;34.13;;;10.88;;
62844;SDS011;48929;47.910;20.390;2023-05-16T00:48:04;31.75;;;11.23;;
62844;SDS011;48929;47.910;20.390;2023-05-16T00:51:05;32.13;;;10.95;;
62844;SDS011;48929;47.910;20.390;2023-05-16T00:54:28;30.90;;;10.60;;
62844;SDS011;48929;47.910;20.390;2023-05-16T00:57:41;27.90;;;10.90;;
62844;SDS011;48929;47.910;20.390;2023-05-16T01:00:43;36.45;;;11.68;;
62844;SDS011;48929;47.910;20.390;2023-05-16T01:03:45;34.85;;;11.50;;
62844;SDS011;48929;47.910;20.390;2023-05-16T01:06:59;36.90;;;11.05;;
62844;SDS011;48929;47.910;20.390;2023-05-16T01:14:40;29.10;;;10.18;;
62844;SDS011;48929;47.910;20.390;2023-05-16T01:24:55;31.35;;;10.23;;
62844;SDS011;48929;47.910;20.390;2023-05-16T01:28:33;31.17;;;9.70;;
62844;SDS011;48929;47.910;20.390;2023-05-16T01:35:00;31.85;;;10.13;;
62844;SDS011;48929;47.910;20.390;2023-05-16T01:38:40;31.33;;;9.75;;
62844;SDS011;48929;47.910;20.390;2023-05-16T02:53:00;14.15;;;7.07;;
62844;SDS011;48929;47.910;20.390;2023-05-16T02:56:27;16.20;;;6.70;;
62844;SDS011;48929;47.910;20.390;2023-05-16T02:59:36;10.98;;;6.07;;
62844;SDS011;48929;47.910;20.390;2023-05-16T03:03:03;13.02;;;6.53;;
62844;SDS011;48929;47.910;20.390;2023-05-16T03:06:42;13.13;;;6.50;;
62844;SDS011;48929;47.910;20.390;2023-05-16T03:10:05;10.82;;;6.32;;
62844;SDS011;48929;47.910;20.390;2023-05-16T03:13:02;13.18;;;6.50;;
62844;SDS011;48929;47.910;20.390;2023-05-16T03:16:09;11.77;;;6.20;;
62844;SDS011;48929;47.910;20.390;2023-05-16T03:19:07;15.77;;;7.50;;
62844;SDS011;48929;47.910;20.390;2023-05-16T03:22:07;12.80;;;6.85;;
62844;SDS011;48929;47.910;20.390;2023-05-16T03:25:03;12.88;;;7.00;;
62844;SDS011;48929;47.910;20.390;2023-05-16T03:28:06;12.18;;;6.90;;
62844;SDS011;48929;47.910;20.390;2023-05-16T03:31:00;13.98;;;6.75;;
62844;SDS011;48929;47.910;20.390;2023-05-16T03:34:27;14.23;;;7.20;;
62844;SDS011;48929;47.910;20.390;2023-05-16T03:37:14;15.15;;;6.40;;
62844;SDS011;48929;47.910;20.390;2023-05-16T03:40:02;11.05;;;6.57;;
62844;SDS011;48929;47.910;20.390;2023-05-16T03:42:41;11.57;;;6.97;;
62844;SDS011;48929;47.910;20.390;2023-05-16T03:45:16;14.20;;;6.93;;
62844;SDS011;48929;47.910;20.390;2023-05-16T03:48:03;13.60;;;7.13;;
62844;SDS011;48929;47.910;20.390;2023-05-16T03:53:45;15.32;;;7.40;;
62844;SDS011;48929;47.910;20.390;2023-05-16T03:59:27;13.43;;;7.07;;
62844;SDS011;48929;47.910;20.390;2023-05-16T04:06:04;13.27;;;6.60;;
62844;SDS011;48929;47.910;20.390;2023-05-16T04:09:10;15.80;;;7.35;;
62844;SDS011;48929;47.910;20.390;2023-05-16T04:12:19;12.35;;;7.18;;
62844;SDS011;48929;47.910;20.390;2023-05-16T04:15:39;13.05;;;6.93;;
62844;SDS011;48929;47.910;20.390;2023-05-16T04:18:47;14.05;;;6.95;;
62844;SDS011;48929;47.910;20.390;2023-05-16T04:21:48;14.57;;;6.38;;
62844;SDS011;48929;47.910;20.390;2023-05-16T04:28:17;14.27;;;7.50;;
62844;SDS011;48929;47.910;20.390;2023-05-16T04:31:30;14.52;;;7.03;;
62844;SDS011;48929;47.910;20.390;2023-05-16T04:34:48;16.80;;;7.88;;
62844;SDS011;48929;47.910;20.390;2023-05-16T04:41:55;16.05;;;7.45;;
62844;SDS011;48929;47.910;20.390;2023-05-16T04:45:29;14.10;;;6.85;;
62844;SDS011;48929;47.910;20.390;2023-05-16T04:56:05;16.15;;;7.65;;
62844;SDS011;48929;47.910;20.390;2023-05-16T05:11:12;10.02;;;5.78;;
62844;SDS011;48929;47.910;20.390;2023-05-16T05:18:17;10.77;;;6.45;;
62844;SDS011;48929;47.910;20.390;2023-05-16T05:21:42;10.32;;;5.82;;
62844;SDS011;48929;47.910;20.390;2023-05-16T05:25:15;8.70;;;5.32;;
62844;SDS011;48929;47.910;20.390;2023-05-16T05:28:37;9.75;;;6.97;;
62844;SDS011;48929;47.910;20.390;2023-05-16T05:36:03;9.50;;;6.13;;
62844;SDS011;48929;47.910;20.390;2023-05-16T05:39:18;11.70;;;6.40;;
62844;SDS011;48929;47.910;20.390;2023-05-16T05:49:10;16.95;;;9.68;;
62844;SDS011;48929;47.910;20.390;2023-05-16T05:52:18;18.70;;;10.35;;
62844;SDS011;48929;47.910;20.390;2023-05-16T05:55:20;16.73;;;9.57;;
62844;SDS011;48929;47.910;20.390;2023-05-16T06:09:16;18.15;;;9.95;;
62844;SDS011;48929;47.910;20.390;2023-05-16T06:12:38;19.83;;;10.65;;
62844;SDS011;48929;47.910;20.390;2023-05-16T06:16:13;20.50;;;9.90;;
62844;SDS011;48929;47.910;20.390;2023-05-16T06:19:21;18.88;;;10.13;;
62844;SDS011;48929;47.910;20.390;2023-05-16T06:22:21;22.25;;;11.00;;
62844;SDS011;48929;47.910;20.390;2023-05-16T06:32:59;24.77;;;11.27;;
62844;SDS011;48929;47.910;20.390;2023-05-16T06:35:59;23.33;;;10.77;;
62844;SDS011;48929;47.910;20.390;2023-05-16T06:39:19;20.65;;;10.40;;
62844;SDS011;48929;47.910;20.390;2023-05-16T06:42:33;20.88;;;10.00;;
62844;SDS011;48929;47.910;20.390;2023-05-16T06:45:35;19.20;;;9.38;;
62844;SDS011;48929;47.910;20.390;2023-05-16T06:58:15;24.05;;;10.88;;
62844;SDS011;48929;47.910;20.390;2023-05-16T07:01:08;22.70;;;10.25;;
62844;SDS011;48929;47.910;20.390;2023-05-16T07:04:17;20.60;;;9.25;;
62844;SDS011;48929;47.910;20.390;2023-05-16T07:07:14;23.65;;;10.75;;
62844;SDS011;48929;47.910;20.390;2023-05-16T07:09:49;21.50;;;8.82;;
62844;SDS011;48929;47.910;20.390;2023-05-16T07:12:28;19.98;;;9.05;;
62844;SDS011;48929;47.910;20.390;2023-05-16T07:15:34;18.10;;;9.10;;
62844;SDS011;48929;47.910;20.390;2023-05-16T07:18:16;19.30;;;9.65;;
62844;SDS011;48929;47.910;20.390;2023-05-16T07:20:44;16.70;;;8.82;;
62844;SDS011;48929;47.910;20.390;2023-05-16T07:23:15;21.73;;;9.00;;
62844;SDS011;48929;47.910;20.390;2023-05-16T07:25:44;18.35;;;9.40;;
62844;SDS011;48929;47.910;20.390;2023-05-16T07:28:13;18.67;;;8.90;;
62844;SDS011;48929;47.910;20.390;2023-05-16T07:30:48;20.15;;;9.55;;
62844;SDS011;48929;47.910;20.390;2023-05-16T07:33:19;22.98;;;10.07;;
62844;SDS011;48929;47.910;20.390;2023-05-16T07:36:47;16.02;;;8.27;;
62844;SDS011;48929;47.910;20.390;2023-05-16T07:40:23;20.93;;;9.43;;
62844;SDS011;48929;47.910;20.390;2023-05-16T07:44:29;18.58;;;9.75;;
62844;SDS011;48929;47.910;20.390;2023-05-16T07:55:00;17.85;;;8.43;;
62844;SDS011;48929;47.910;20.390;2023-05-16T07:58:26;17.08;;;9.25;;
62844;SDS011;48929;47.910;20.390;2023-05-16T08:01:39;17.38;;;9.05;;
62844;SDS011;48929;47.910;20.390;2023-05-16T08:12:29;15.05;;;8.00;;
62844;SDS011;48929;47.910;20.390;2023-05-16T08:15:22;13.63;;;8.13;;
62844;SDS011;48929;47.910;20.390;2023-05-16T08:18:11;15.18;;;7.82;;
62844;SDS011;48929;47.910;20.390;2023-05-16T08:20:47;13.05;;;7.88;;
62844;SDS011;48929;47.910;20.390;2023-05-16T08:23:42;16.92;;;8.40;;
62844;SDS011;48929;47.910;20.390;2023-05-16T08:26:24;13.88;;;8.23;;
62844;SDS011;48929;47.910;20.390;2023-05-16T08:32:48;12.77;;;7.35;;
62844;SDS011;48929;47.910;20.390;2023-05-16T08:35:18;13.82;;;8.52;;
62844;SDS011;48929;47.910;20.390;2023-05-16T08:38:17;14.20;;;7.57;;
62844;SDS011;48929;47.910;20.390;2023-05-16T08:41:07;13.55;;;7.57;;
62844;SDS011;48929;47.910;20.390;2023-05-16T08:43:41;14.02;;;7.45;;
62844;SDS011;48929;47.910;20.390;2023-05-16T08:46:16;15.25;;;7.90;;
62844;SDS011;48929;47.910;20.390;2023-05-16T08:48:53;13.98;;;7.95;;
62844;SDS011;48929;47.910;20.390;2023-05-16T08:51:41;11.52;;;6.93;;
62844;SDS011;48929;47.910;20.390;2023-05-16T08:54:11;9.85;;;6.63;;
62844;SDS011;48929;47.910;20.390;2023-05-16T08:56:43;11.82;;;6.15;;
62844;SDS011;48929;47.910;20.390;2023-05-16T08:59:29;8.32;;;5.50;;
62844;SDS011;48929;47.910;20.390;2023-05-16T09:01:57;10.57;;;5.88;;
62844;SDS011;48929;47.910;20.390;2023-05-16T09:04:31;7.95;;;5.15;;
62844;SDS011;48929;47.910;20.390;2023-05-16T09:07:17;6.93;;;4.97;;
62844;SDS011;48929;47.910;20.390;2023-05-16T09:09:48;8.27;;;4.97;;
62844;SDS011;48929;47.910;20.390;2023-05-16T09:12:23;9.15;;;4.75;;
62844;SDS011;48929;47.910;20.390;2023-05-16T09:15:02;8.55;;;4.95;;
62844;SDS011;48929;47.910;20.390;2023-05-16T09:17:33;6.72;;;4.55;;
62844;SDS011;48929;47.910;20.390;2023-05-16T09:23:16;5.10;;;3.30;;
62844;SDS011;48929;47.910;20.390;2023-05-16T09:29:15;5.70;;;3.60;;
62844;SDS011;48929;47.910;20.390;2023-05-16T09:32:11;4.45;;;2.92;;
62844;SDS011;48929;47.910;20.390;2023-05-16T09:35:16;4.32;;;2.67;;
62844;SDS011;48929;47.910;20.390;2023-05-16T09:38:22;3.15;;;2.42;;
62844;SDS011;48929;47.910;20.390;2023-05-16T09:40:55;4.05;;;2.30;;
62844;SDS011;48929;47.910;20.390;2023-05-16T09:43:28;3.17;;;2.10;;
62844;SDS011;48929;47.910;20.390;2023-05-16T09:45:58;4.45;;;2.28;;
62844;SDS011;48929;47.910;20.390;2023-05-16T09:48:31;5.63;;;2.30;;
62844;SDS011;48929;47.910;20.390;2023-05-16T09:51:14;2.85;;;2.13;;
62844;SDS011;48929;47.910;20.390;2023-05-16T09:56:56;2.67;;;1.77;;
62844;SDS011;48929;47.910;20.390;2023-05-16T10:03:47;2.70;;;1.70;;
62844;SDS011;48929;47.910;20.390;2023-05-16T10:07:10;2.95;;;2.10;;
62844;SDS011;48929;47.910;20.390;2023-05-16T10:10:16;3.97;;;2.22;;
62844;SDS011;48929;47.910;20.390;2023-05-16T10:17:11;6.03;;;2.50;;
62844;SDS011;48929;47.910;20.390;2023-05-16T10:19:49;3.42;;;2.42;;
62844;SDS011;48929;47.910;20.390;2023-05-16T10:23:03;5.20;;;2.45;;
62844;SDS011;48929;47.910;20.390;2023-05-16T10:42:20;5.80;;;3.40;;
62844;SDS011;48929;47.910;20.390;2023-05-16T10:45:32;5.90;;;3.00;;
62844;SDS011;48929;47.910;20.390;2023-05-16T11:03:24;7.45;;;3.72;;
62844;SDS011;48929;47.910;20.390;2023-05-16T11:06:01;6.00;;;3.70;;
62844;SDS011;48929;47.910;20.390;2023-05-16T11:09:17;5.60;;;3.67;;
62844;SDS011;48929;47.910;20.390;2023-05-16T11:12:20;7.07;;;3.60;;
62844;SDS011;48929;47.910;20.390;2023-05-16T11:15:30;6.35;;;3.88;;
62844;SDS011;48929;47.910;20.390;2023-05-16T12:01:40;9.68;;;4.70;;
62844;SDS011;48929;47.910;20.390;2023-05-16T12:05:20;9.88;;;5.00;;
62844;SDS011;48929;47.910;20.390;2023-05-16T12:08:23;9.32;;;5.03;;
62844;SDS011;48929;47.910;20.390;2023-05-16T12:36:30;10.18;;;5.13;;
62844;SDS011;48929;47.910;20.390;2023-05-16T12:39:15;11.45;;;5.75;;
62844;SDS011;48929;47.910;20.390;2023-05-16T12:41:49;9.88;;;5.28;;
62844;SDS011;48929;47.910;20.390;2023-05-16T12:44:51;9.52;;;5.68;;
62844;SDS011;48929;47.910;20.390;2023-05-16T12:48:00;7.60;;;5.25;;
62844;SDS011;48929;47.910;20.390;2023-05-16T12:51:09;14.07;;;5.93;;
62844;SDS011;48929;47.910;20.390;2023-05-16T12:57:44;12.98;;;5.65;;
62844;SDS011;48929;47.910;20.390;2023-05-16T13:00:43;11.90;;;6.13;;
62844;SDS011;48929;47.910;20.390;2023-05-16T13:03:58;9.80;;;5.63;;
62844;SDS011;48929;47.910;20.390;2023-05-16T13:10:34;11.45;;;6.00;;
62844;SDS011;48929;47.910;20.390;2023-05-16T13:17:41;9.07;;;5.85;;
62844;SDS011;48929;47.910;20.390;2023-05-16T13:21:04;10.57;;;5.65;;
62844;SDS011;48929;47.910;20.390;2023-05-16T13:24:13;8.60;;;5.95;;
62844;SDS011;48929;47.910;20.390;2023-05-16T13:27:39;9.23;;;6.40;;
62844;SDS011;48929;47.910;20.390;2023-05-16T13:30:56;9.40;;;6.25;;
62844;SDS011;48929;47.910;20.390;2023-05-16T14:18:09;11.25;;;5.85;;
62844;SDS011;48929;47.910;20.390;2023-05-16T14:22:25;8.25;;;5.35;;
62844;SDS011;48929;47.910;20.390;2023-05-16T14:33:10;10.10;;;5.32;;
62844;SDS011;48929;47.910;20.390;2023-05-16T14:36:26;10.35;;;5.95;;
62844;SDS011;48929;47.910;20.390;2023-05-16T14:39:41;7.85;;;4.53;;
62844;SDS011;48929;47.910;20.390;2023-05-16T14:42:45;7.25;;;4.90;;
62844;SDS011;48929;47.910;20.390;2023-05-16T14:45:58;7.88;;;5.00;;
62844;SDS011;48929;47.910;20.390;2023-05-16T14:48:58;6.78;;;4.90;;
62844;SDS011;48929;47.910;20.390;2023-05-16T14:51:43;6.15;;;4.78;;
62844;SDS011;48929;47.910;20.390;2023-05-16T14:55:08;8.25;;;5.07;;
62844;SDS011;48929;47.910;20.390;2023-05-16T15:01:19;8.43;;;5.28;;
62844;SDS011;48929;47.910;20.390;2023-05-16T15:04:14;9.20;;;4.90;;
62844;SDS011;48929;47.910;20.390;2023-05-16T15:07:08;7.15;;;4.82;;
62844;SDS011;48929;47.910;20.390;2023-05-16T15:13:13;7.38;;;4.97;;
62844;SDS011;48929;47.910;20.390;2023-05-16T15:15:07;8.68;;;5.10;;
62844;SDS011;48929;47.910;20.390;2023-05-16T15:18:20;8.67;;;5.40;;
62844;SDS011;48929;47.910;20.390;2023-05-16T15:21:47;10.18;;;5.38;;
62844;SDS011;48929;47.910;20.390;2023-05-16T15:26:34;9.80;;;5.40;;
62844;SDS011;48929;47.910;20.390;2023-05-16T15:28:50;11.05;;;5.57;;
62844;SDS011;48929;47.910;20.390;2023-05-16T15:31:37;8.63;;;5.47;;
62844;SDS011;48929;47.910;20.390;2023-05-16T15:34:42;10.43;;;5.35;;
62844;SDS011;48929;47.910;20.390;2023-05-16T15:37:43;14.18;;;5.65;;
62844;SDS011;48929;47.910;20.390;2023-05-16T15:40:34;8.73;;;5.45;;
62844;SDS011;48929;47.910;20.390;2023-05-16T15:43:54;11.38;;;5.43;;
62844;SDS011;48929;47.910;20.390;2023-05-16T15:47:03;10.63;;;5.75;;
62844;SDS011;48929;47.910;20.390;2023-05-16T15:50:12;10.43;;;5.32;;
62844;SDS011;48929;47.910;20.390;2023-05-16T15:56:52;8.25;;;5.15;;
62844;SDS011;48929;47.910;20.390;2023-05-16T16:00:01;10.88;;;5.65;;
62844;SDS011;48929;47.910;20.390;2023-05-16T16:03:12;12.00;;;5.30;;
62844;SDS011;48929;47.910;20.390;2023-05-16T16:06:22;8.98;;;5.53;;
62844;SDS011;48929;47.910;20.390;2023-05-16T16:19:38;8.35;;;4.88;;
62844;SDS011;48929;47.910;20.390;2023-05-16T16:22:49;11.10;;;5.63;;
62844;SDS011;48929;47.910;20.390;2023-05-16T16:26:23;12.10;;;5.28;;
62844;SDS011;48929;47.910;20.390;2023-05-16T16:29:08;11.25;;;5.20;;
62844;SDS011;48929;47.910;20.390;2023-05-16T16:32:24;8.88;;;5.00;;
62844;SDS011;48929;47.910;20.390;2023-05-16T16:35:43;11.68;;;5.20;;
62844;SDS011;48929;47.910;20.390;2023-05-16T16:43:16;12.57;;;5.43;;
62844;SDS011;48929;47.910;20.390;2023-05-16T16:46:23;12.25;;;5.50;;
62844;SDS011;48929;47.910;20.390;2023-05-16T16:49:36;9.98;;;4.97;;
62844;SDS011;48929;47.910;20.390;2023-05-16T17:29:41;12.70;;;5.75;;
62844;SDS011;48929;47.910;20.390;2023-05-16T17:36:42;12.40;;;5.60;;
62844;SDS011;48929;47.910;20.390;2023-05-16T17:40:06;11.10;;;5.50;;
62844;SDS011;48929;47.910;20.390;2023-05-16T17:42:54;9.57;;;5.22;;
62844;SDS011;48929;47.910;20.390;2023-05-16T17:45:45;10.13;;;5.17;;
62844;SDS011;48929;47.910;20.390;2023-05-16T17:48:32;12.65;;;5.43;;
62844;SDS011;48929;47.910;20.390;2023-05-16T17:55:29;11.02;;;4.85;;
62844;SDS011;48929;47.910;20.390;2023-05-16T18:47:55;10.98;;;4.55;;
62844;SDS011;48929;47.910;20.390;2023-05-16T22:13:21;17.30;;;5.38;;
62844;SDS011;48929;47.910;20.390;2023-05-16T22:16:00;13.40;;;4.57;;
62844;SDS011;48929;47.910;20.390;2023-05-16T22:32:32;12.60;;;4.55;;
62844;SDS011;48929;47.910;20.390;2023-05-16T22:36:16;15.07;;;4.63;;
62844;SDS011;48929;47.910;20.390;2023-05-16T22:39:37;11.43;;;4.78;;
62844;SDS011;48929;47.910;20.390;2023-05-16T22:43:02;12.87;;;5.00;;
62844;SDS011;48929;47.910;20.390;2023-05-16T22:50:09;16.33;;;4.85;;
62844;SDS011;48929;47.910;20.390;2023-05-16T22:53:02;14.10;;;5.32;;
62844;SDS011;48929;47.910;20.390;2023-05-16T22:59:10;12.43;;;4.82;;
62844;SDS011;48929;47.910;20.390;2023-05-16T23:02:30;13.68;;;5.53;;
62844;SDS011;48929;47.910;20.390;2023-05-16T23:12:23;9.70;;;4.43;;
62844;SDS011;48929;47.910;20.390;2023-05-16T23:14:57;16.40;;;4.45;;
62844;SDS011;48929;47.910;20.390;2023-05-16T23:27:18;14.35;;;5.07;;
62844;SDS011;48929;47.910;20.390;2023-05-16T23:33:30;14.05;;;4.57;;
62844;SDS011;48929;47.910;20.390;2023-05-16T23:36:33;12.90;;;4.85;;
62844;SDS011;48929;47.910;20.390;2023-05-16T23:43:53;16.20;;;4.75;;
62844;SDS011;48929;47.910;20.390;2023-05-16T23:46:35;11.50;;;4.60;;
